Time;durP1;ratioP1;P1;durP2;ratioP2;P2;SDS_P1;SDS_P2;PMS_P1;PMS_P2;Temp;Humidity;BMP_temperature;BMP_pressure;BME280_temperature;BME280_humidity;BME280_pressure;Samples;Min_cycle;Max_cycle;Signal;HPM_P1;HPM_P2
2022/03/08 00:01:59;;;;;;;15.88;10.80;;;6.70;54.30;;;;;;5113468;27;20027;-64
2022/03/08 00:04:25;;;;;;;14.15;10.15;;;6.70;54.40;;;;;;5109544;27;20019;-64
2022/03/08 00:06:51;;;;;;;14.90;10.35;;;6.70;54.40;;;;;;5109683;28;20031;-64
2022/03/08 00:09:17;;;;;;;14.68;10.27;;;6.70;54.50;;;;;;5106569;28;20735;-64
2022/03/08 00:11:43;;;;;;;13.27;9.85;;;6.60;54.60;;;;;;5120498;27;20023;-64
2022/03/08 00:14:08;;;;;;;17.65;11.25;;;6.60;54.60;;;;;;5109140;28;20043;-64
2022/03/08 00:16:34;;;;;;;13.70;10.15;;;6.50;54.70;;;;;;5108619;28;20035;-64
2022/03/08 00:19:00;;;;;;;15.50;10.43;;;6.50;54.60;;;;;;5095877;28;20063;-63
2022/03/08 00:21:26;;;;;;;14.68;10.60;;;6.50;54.80;;;;;;5108911;28;20527;-61
2022/03/08 00:23:51;;;;;;;15.38;10.57;;;6.50;54.90;;;;;;5106511;28;20112;-61
2022/03/08 00:26:17;;;;;;;13.93;10.40;;;6.40;54.90;;;;;;5107278;28;20028;-61
2022/03/08 00:28:43;;;;;;;13.38;10.02;;;6.40;55.10;;;;;;5089166;28;20392;-61
2022/03/08 00:31:08;;;;;;;14.23;9.75;;;6.40;55.10;;;;;;5112378;27;20059;-64
2022/03/08 00:33:34;;;;;;;14.15;10.02;;;6.30;55.10;;;;;;5114135;28;20078;-61
2022/03/08 00:36:00;;;;;;;14.65;9.95;;;6.30;55.10;;;;;;5110636;27;20027;-61
2022/03/08 00:38:26;;;;;;;12.95;9.77;;;6.30;55.10;;;;;;5092054;28;20035;-61
2022/03/08 00:40:51;;;;;;;13.98;10.00;;;6.20;55.20;;;;;;5108192;28;20022;-61
2022/03/08 00:43:17;;;;;;;13.63;10.00;;;6.20;55.40;;;;;;5115748;28;20474;-61
2022/03/08 00:45:43;;;;;;;14.65;10.32;;;6.20;55.40;;;;;;5108757;28;20054;-61
2022/03/08 00:48:09;;;;;;;15.23;10.48;;;6.10;55.60;;;;;;5106819;28;20028;-62
2022/03/08 00:50:36;;;;;;;13.18;9.43;;;6.10;55.60;;;;;;5087975;28;20027;-61
2022/03/08 00:53:02;;;;;;;12.80;9.63;;;6.00;55.50;;;;;;5106895;28;20359;-64
2022/03/08 00:55:30;;;;;;;15.25;9.43;;;6.00;55.60;;;;;;5090436;28;20026;-64
2022/03/08 00:57:57;;;;;;;13.68;9.90;;;6.00;56.20;;;;;;5088478;28;20039;-64
2022/03/08 01:00:26;;;;;;;13.60;9.60;;;6.00;55.60;;;;;;5099624;28;20032;-65
2022/03/08 01:02:52;;;;;;;16.40;10.77;;;6.00;55.70;;;;;;5088547;28;20147;-64
2022/03/08 01:05:18;;;;;;;11.75;9.43;;;5.90;55.60;;;;;;5111417;28;20161;-61
2022/03/08 01:07:44;;;;;;;12.73;9.30;;;5.90;55.60;;;;;;5106222;28;20039;-61
2022/03/08 01:10:13;;;;;;;15.30;9.40;;;5.90;55.60;;;;;;5112327;28;20035;-61
2022/03/08 01:12:39;;;;;;;13.52;9.75;;;5.90;55.70;;;;;;5097675;28;20474;-67
2022/03/08 01:15:06;;;;;;;13.88;10.00;;;5.80;55.90;;;;;;5115535;28;20048;-64
2022/03/08 01:17:32;;;;;;;13.93;9.60;;;5.80;56.00;;;;;;5105680;28;20053;-61
2022/03/08 01:19:58;;;;;;;12.15;9.18;;;5.80;56.10;;;;;;5113779;28;20056;-60
2022/03/08 01:22:24;;;;;;;13.40;10.20;;;5.70;56.30;;;;;;5075168;28;20154;-60
2022/03/08 01:24:50;;;;;;;13.90;10.02;;;5.70;56.40;;;;;;5107654;28;20116;-60
2022/03/08 01:27:16;;;;;;;13.35;9.75;;;5.70;56.50;;;;;;5089023;28;20031;-61
2022/03/08 01:29:42;;;;;;;13.32;9.45;;;5.60;56.50;;;;;;5106914;28;20449;-61
2022/03/08 01:32:08;;;;;;;13.27;9.95;;;5.60;56.60;;;;;;5119750;27;20047;-60
2022/03/08 01:34:34;;;;;;;14.48;10.60;;;5.50;56.50;;;;;;5114263;27;20031;-62
2022/03/08 01:37:03;;;;;;;14.05;10.07;;;5.50;56.60;;;;;;5093199;28;20026;-61
2022/03/08 01:39:28;;;;;;;14.85;10.30;;;5.50;56.80;;;;;;5114640;27;20110;-60
2022/03/08 01:41:54;;;;;;;14.13;9.80;;;5.50;56.90;;;;;;5112236;27;20219;-64
2022/03/08 01:44:20;;;;;;;12.82;9.30;;;5.40;56.90;;;;;;5112324;28;20378;-61
2022/03/08 01:46:46;;;;;;;14.55;10.07;;;5.40;57.00;;;;;;5116978;27;20038;-64
2022/03/08 01:49:12;;;;;;;15.77;10.35;;;5.40;56.90;;;;;;5097267;27;20062;-61
2022/03/08 01:51:39;;;;;;;12.35;8.88;;;5.30;57.10;;;;;;5111459;28;20378;-64
2022/03/08 01:54:08;;;;;;;13.40;9.55;;;5.30;57.10;;;;;;5111964;28;20470;-61
2022/03/08 01:56:34;;;;;;;15.32;9.43;;;5.30;57.00;;;;;;5114115;27;20035;-61
2022/03/08 01:59:01;;;;;;;14.32;8.65;;;5.20;56.90;;;;;;5114287;27;20024;-61
2022/03/08 02:01:26;;;;;;;18.75;9.02;;;5.20;56.90;;;;;;5111097;28;20027;-60
2022/03/08 02:03:52;;;;;;;14.13;9.70;;;5.20;57.10;;;;;;5111889;28;20449;-64
2022/03/08 02:06:18;;;;;;;11.15;8.85;;;5.10;57.20;;;;;;5111570;28;20084;-65
2022/03/08 02:08:44;;;;;;;13.43;8.77;;;5.10;57.00;;;;;;5093174;28;20043;-64
2022/03/08 02:11:11;;;;;;;11.75;8.90;;;5.10;57.00;;;;;;5111580;28;20038;-64
2022/03/08 02:13:38;;;;;;;11.57;8.05;;;5.10;57.10;;;;;;5113862;27;20031;-64
2022/03/08 02:16:05;;;;;;;13.07;8.90;;;5.00;57.00;;;;;;5116750;27;20055;-64
2022/03/08 02:18:31;;;;;;;10.90;8.80;;;5.00;57.10;;;;;;5112453;27;20020;-64
2022/03/08 02:21:08;;;;;;;15.32;8.68;;;5.00;57.20;;;;;;5111310;28;20081;-64
2022/03/08 02:23:34;;;;;;;14.57;9.07;;;5.00;57.20;;;;;;5112112;28;20111;-61
2022/03/08 02:26:03;;;;;;;11.00;8.10;;;4.90;57.20;;;;;;5111566;28;20032;-61
2022/03/08 02:28:30;;;;;;;11.32;8.20;;;4.90;57.20;;;;;;5128796;27;20027;-61
2022/03/08 02:30:56;;;;;;;13.00;8.68;;;4.90;57.20;;;;;;5113280;27;20814;-61
2022/03/08 02:33:22;;;;;;;10.40;8.02;;;4.80;57.20;;;;;;5100202;28;20771;-61
2022/03/08 02:35:47;;;;;;;14.65;8.52;;;4.80;57.80;;;;;;5096174;28;20032;-61
2022/03/08 02:38:13;;;;;;;12.05;7.63;;;4.80;57.20;;;;;;5120952;27;20042;-61
2022/03/08 02:40:41;;;;;;;11.68;8.32;;;4.80;57.40;;;;;;5112853;27;20031;-64
2022/03/08 02:43:09;;;;;;;11.27;7.97;;;4.80;57.50;;;;;;5111265;27;20043;-64
2022/03/08 02:45:36;;;;;;;10.65;7.55;;;4.70;57.40;;;;;;5110954;28;20076;-65
2022/03/08 02:48:02;;;;;;;12.27;7.55;;;4.70;57.30;;;;;;5111076;28;20042;-65
2022/03/08 02:50:28;;;;;;;14.40;8.07;;;4.70;57.30;;;;;;5094218;27;20555;-65
2022/03/08 02:52:56;;;;;;;11.02;7.78;;;4.70;57.40;;;;;;5119561;27;20032;-64
2022/03/08 02:55:27;;;;;;;11.85;7.55;;;4.70;57.40;;;;;;5115963;27;20503;-65
2022/03/08 02:57:53;;;;;;;10.38;7.57;;;4.60;57.50;;;;;;5127298;27;20563;-61
2022/03/08 03:00:20;;;;;;;12.00;7.05;;;4.60;57.40;;;;;;5109355;28;20412;-62
2022/03/08 03:02:46;;;;;;;10.75;7.57;;;4.60;57.30;;;;;;5098875;27;20088;-62
2022/03/08 03:05:13;;;;;;;12.60;6.90;;;4.60;57.30;;;;;;5114048;27;20102;-62
2022/03/08 03:07:39;;;;;;;10.27;6.72;;;4.50;57.30;;;;;;5092332;28;20155;-61
2022/03/08 03:10:11;;;;;;;9.10;6.97;;;4.50;57.40;;;;;;5108357;28;20058;-62
2022/03/08 03:12:38;;;;;;;11.23;7.28;;;4.50;57.30;;;;;;5110220;28;20035;-61
2022/03/08 03:15:06;;;;;;;9.15;6.60;;;4.50;57.50;;;;;;5109894;28;20031;-64
2022/03/08 03:17:32;;;;;;;10.57;7.05;;;4.50;57.60;;;;;;5117519;27;20039;-62
2022/03/08 03:19:57;;;;;;;11.52;6.97;;;4.50;57.60;;;;;;5120892;27;20039;-62
2022/03/08 03:22:23;;;;;;;9.55;6.50;;;4.50;57.70;;;;;;5097430;27;20043;-61
2022/03/08 03:24:49;;;;;;;8.63;6.50;;;4.40;57.70;;;;;;5115562;27;20406;-61
2022/03/08 03:27:15;;;;;;;8.57;6.10;;;4.40;57.60;;;;;;5090466;28;20031;-64
2022/03/08 03:29:40;;;;;;;8.00;6.10;;;4.40;57.50;;;;;;5114024;27;20047;-64
2022/03/08 03:32:06;;;;;;;8.15;6.03;;;4.40;57.40;;;;;;5110370;28;20035;-64
2022/03/08 03:34:32;;;;;;;8.15;5.95;;;4.30;57.40;;;;;;5109732;28;20043;-65
2022/03/08 03:36:58;;;;;;;9.75;6.07;;;4.30;57.30;;;;;;5115961;27;20053;-64
2022/03/08 03:39:23;;;;;;;9.35;6.22;;;4.30;57.90;;;;;;5116059;27;20031;-61
2022/03/08 03:41:49;;;;;;;10.43;6.68;;;4.30;57.30;;;;;;5113871;27;20035;-62
2022/03/08 03:44:15;;;;;;;9.57;6.60;;;4.30;57.30;;;;;;5113341;27;20038;-62
2022/03/08 03:46:41;;;;;;;8.20;6.10;;;4.30;57.50;;;;;;5091519;28;20024;-64
2022/03/08 03:49:06;;;;;;;9.10;6.03;;;4.20;58.00;;;;;;5109297;28;20143;-65
2022/03/08 03:51:32;;;;;;;10.10;5.72;;;4.20;57.50;;;;;;5109737;28;20034;-64
2022/03/08 03:53:58;;;;;;;7.85;5.85;;;4.20;57.60;;;;;;5105598;28;20429;-64
2022/03/08 03:56:24;;;;;;;8.20;5.53;;;4.20;57.60;;;;;;5107862;28;20043;-64
2022/03/08 03:58:50;;;;;;;7.75;5.90;;;4.10;57.50;;;;;;5109093;27;20058;-61
2022/03/08 04:01:15;;;;;;;8.40;6.50;;;4.10;57.60;;;;;;5105072;28;20038;-61
2022/03/08 04:03:41;;;;;;;9.45;6.00;;;4.10;57.80;;;;;;5107188;27;20366;-64
2022/03/08 04:06:07;;;;;;;8.20;5.95;;;4.10;57.70;;;;;;5121362;27;20111;-65
2022/03/08 04:08:34;;;;;;;10.55;6.20;;;4.10;57.80;;;;;;5113263;27;20493;-64
2022/03/08 04:10:59;;;;;;;7.85;5.75;;;4.10;57.80;;;;;;5107832;27;20035;-64
2022/03/08 04:13:25;;;;;;;8.05;5.38;;;4.00;57.60;;;;;;5113997;27;20028;-62
2022/03/08 04:15:52;;;;;;;8.73;5.68;;;4.00;57.60;;;;;;5108525;28;20020;-60
2022/03/08 04:18:18;;;;;;;9.38;6.68;;;4.00;57.60;;;;;;5106909;28;20028;-61
2022/03/08 04:20:44;;;;;;;7.55;5.70;;;4.00;57.70;;;;;;5107585;28;20088;-61
2022/03/08 04:23:10;;;;;;;7.70;5.72;;;4.00;58.40;;;;;;5110134;27;20463;-61
2022/03/08 04:25:35;;;;;;;8.02;5.82;;;4.00;57.70;;;;;;5075723;27;20232;-61
2022/03/08 04:28:03;;;;;;;8.60;5.95;;;4.00;57.70;;;;;;5107305;28;20055;-61
2022/03/08 04:30:29;;;;;;;7.57;5.60;;;3.90;57.70;;;;;;5108136;28;20043;-64
2022/03/08 04:32:55;;;;;;;7.40;5.97;;;3.90;57.80;;;;;;5107747;28;20047;-64
2022/03/08 04:35:21;;;;;;;8.25;6.18;;;3.90;57.80;;;;;;5107343;28;20096;-61
2022/03/08 04:37:47;;;;;;;8.57;6.00;;;3.80;57.70;;;;;;5089930;28;20474;-64
2022/03/08 04:40:13;;;;;;;9.05;5.70;;;3.80;57.80;;;;;;5107971;28;20031;-60
2022/03/08 04:42:39;;;;;;;7.43;5.35;;;3.80;57.70;;;;;;5108039;28;20041;-63
2022/03/08 04:45:07;;;;;;;8.02;5.93;;;3.80;57.60;;;;;;5107194;28;20099;-61
2022/03/08 04:47:35;;;;;;;9.15;6.22;;;3.80;58.30;;;;;;5114478;28;20541;-61
2022/03/08 04:50:02;;;;;;;11.23;6.95;;;3.80;57.70;;;;;;5117726;28;20027;-61
2022/03/08 04:52:28;;;;;;;7.88;5.97;;;3.80;57.80;;;;;;5114409;28;20359;-64
2022/03/08 04:54:54;;;;;;;10.63;5.68;;;3.80;57.70;;;;;;5108876;28;20031;-64
2022/03/08 04:57:20;;;;;;;6.97;5.53;;;3.80;57.80;;;;;;5107264;28;20163;-64
2022/03/08 04:59:45;;;;;;;9.02;5.90;;;3.70;57.80;;;;;;5106954;28;20034;-64
2022/03/08 05:02:11;;;;;;;7.28;5.43;;;3.70;57.70;;;;;;5108110;28;20024;-60
2022/03/08 05:04:37;;;;;;;8.20;6.07;;;3.70;57.60;;;;;;5091453;28;20027;-61
2022/03/08 05:07:02;;;;;;;7.72;5.47;;;3.70;57.60;;;;;;5111603;28;20077;-61
2022/03/08 05:09:28;;;;;;;6.93;5.63;;;3.70;57.80;;;;;;5109566;28;20503;-61
2022/03/08 05:11:54;;;;;;;9.02;6.05;;;3.70;57.60;;;;;;5110451;28;20023;-64
2022/03/08 05:14:20;;;;;;;10.95;6.00;;;3.70;57.70;;;;;;5092286;28;20059;-61
2022/03/08 05:16:45;;;;;;;8.77;6.03;;;3.70;57.80;;;;;;5092535;28;20031;-61
2022/03/08 05:19:11;;;;;;;7.93;5.55;;;3.70;58.00;;;;;;5112338;27;20447;-64
2022/03/08 05:21:37;;;;;;;11.25;5.95;;;3.70;57.70;;;;;;5111720;27;20497;-64
2022/03/08 05:24:03;;;;;;;8.30;5.88;;;3.60;57.60;;;;;;5093092;28;20063;-61
2022/03/08 05:26:29;;;;;;;9.90;5.75;;;3.60;57.70;;;;;;5105723;27;20114;-61
2022/03/08 05:28:55;;;;;;;9.02;6.38;;;3.60;57.60;;;;;;5124185;27;20031;-61
2022/03/08 05:31:20;;;;;;;9.35;6.00;;;3.60;57.70;;;;;;5119171;27;20027;-61
2022/03/08 05:33:46;;;;;;;7.68;5.72;;;3.60;57.70;;;;;;5094768;28;20139;-61
2022/03/08 05:36:12;;;;;;;8.65;5.95;;;3.60;57.60;;;;;;5102798;28;20478;-60
2022/03/08 05:38:37;;;;;;;8.02;5.80;;;3.60;57.60;;;;;;5099646;28;20183;-64
2022/03/08 05:41:03;;;;;;;8.13;5.80;;;3.50;57.70;;;;;;5090728;28;20029;-64
2022/03/08 05:43:29;;;;;;;9.38;6.07;;;3.60;57.80;;;;;;5090565;28;20032;-60
2022/03/08 05:45:54;;;;;;;7.93;6.47;;;3.60;57.90;;;;;;5092159;28;20031;-61
2022/03/08 05:48:20;;;;;;;7.40;5.85;;;3.60;57.90;;;;;;5093518;28;20043;-63
2022/03/08 05:50:45;;;;;;;9.50;6.25;;;3.60;57.90;;;;;;5090346;28;20083;-60
2022/03/08 05:53:11;;;;;;;7.00;5.85;;;3.50;58.60;;;;;;5090537;28;20456;-60
2022/03/08 05:55:37;;;;;;;7.93;6.07;;;3.60;58.00;;;;;;5089722;28;20032;-64
2022/03/08 05:58:03;;;;;;;9.80;6.45;;;3.50;58.00;;;;;;5099346;28;20043;-64
2022/03/08 06:00:29;;;;;;;7.97;5.30;;;3.50;58.00;;;;;;5096662;28;20025;-64
2022/03/08 06:02:55;;;;;;;6.47;5.60;;;3.50;57.90;;;;;;5090047;28;20043;-64
2022/03/08 06:05:22;;;;;;;7.32;5.88;;;3.50;57.90;;;;;;5089219;28;20030;-64
2022/03/08 06:07:48;;;;;;;9.35;5.88;;;3.50;58.00;;;;;;5090859;28;20047;-64
2022/03/08 06:10:14;;;;;;;7.88;6.35;;;3.50;57.90;;;;;;5094983;28;20028;-64
2022/03/08 06:12:41;;;;;;;8.02;6.25;;;3.40;57.90;;;;;;5091428;28;20050;-64
2022/03/08 06:15:08;;;;;;;12.05;7.00;;;3.40;58.20;;;;;;5090211;28;20024;-64
2022/03/08 06:17:34;;;;;;;9.93;6.38;;;3.40;58.10;;;;;;5086541;28;20107;-64
2022/03/08 06:19:59;;;;;;;10.13;6.30;;;3.40;58.10;;;;;;5093151;28;20577;-61
2022/03/08 06:22:25;;;;;;;9.30;6.18;;;3.40;58.00;;;;;;5083878;28;20520;-61
2022/03/08 06:24:51;;;;;;;7.47;5.72;;;3.40;58.20;;;;;;5090015;28;20509;-62
2022/03/08 06:27:16;;;;;;;8.15;5.93;;;3.40;58.00;;;;;;5104963;28;20035;-64
2022/03/08 06:29:42;;;;;;;7.07;5.35;;;3.40;58.00;;;;;;5090013;28;20043;-65
2022/03/08 06:32:08;;;;;;;8.40;5.90;;;3.40;57.90;;;;;;5095525;28;20032;-61
2022/03/08 06:34:34;;;;;;;8.80;6.40;;;3.40;57.90;;;;;;5109707;28;20347;-62
2022/03/08 06:37:00;;;;;;;8.77;5.82;;;3.40;58.00;;;;;;5092224;28;20043;-61
2022/03/08 06:39:25;;;;;;;8.52;6.10;;;3.40;58.00;;;;;;5110169;28;20436;-61
2022/03/08 06:41:51;;;;;;;9.27;6.05;;;3.40;58.10;;;;;;5091340;28;20028;-64
2022/03/08 06:44:17;;;;;;;7.00;5.47;;;3.40;58.10;;;;;;5091742;28;20097;-64
2022/03/08 06:46:44;;;;;;;9.10;6.30;;;3.40;58.10;;;;;;5112765;27;20039;-64
2022/03/08 06:49:11;;;;;;;10.30;6.30;;;3.40;58.20;;;;;;5091116;28;20027;-65
2022/03/08 06:51:37;;;;;;;8.60;6.72;;;3.50;58.30;;;;;;5093389;28;20027;-65
2022/03/08 06:54:04;;;;;;;7.30;5.57;;;3.40;58.20;;;;;;5121127;27;20024;-65
2022/03/08 06:56:31;;;;;;;8.77;6.70;;;3.40;58.20;;;;;;5110526;28;20507;-64
2022/03/08 06:58:56;;;;;;;8.63;6.07;;;3.50;58.10;;;;;;5108182;28;20024;-62
2022/03/08 07:01:22;;;;;;;8.05;5.93;;;3.50;58.20;;;;;;5113612;27;20374;-61
2022/03/08 07:03:48;;;;;;;9.25;6.10;;;3.50;58.10;;;;;;5114851;27;20091;-62
2022/03/08 07:06:14;;;;;;;8.00;6.25;;;3.50;58.00;;;;;;5114864;27;20058;-65
2022/03/08 07:08:39;;;;;;;8.40;5.90;;;3.50;58.00;;;;;;5121881;27;20087;-64
2022/03/08 07:11:05;;;;;;;8.60;6.05;;;3.50;57.90;;;;;;5122125;27;20085;-64
2022/03/08 07:13:32;;;;;;;9.00;6.70;;;3.60;58.00;;;;;;5108983;28;20375;-64
2022/03/08 07:15:58;;;;;;;8.80;6.43;;;3.60;58.10;;;;;;5108595;28;20057;-64
2022/03/08 07:18:24;;;;;;;8.80;6.07;;;3.60;58.10;;;;;;5120572;27;20020;-64
2022/03/08 07:20:51;;;;;;;8.65;6.32;;;3.60;58.00;;;;;;5109296;28;20074;-64
2022/03/08 07:23:16;;;;;;;8.45;5.78;;;3.60;57.80;;;;;;5113642;27;20070;-64
2022/03/08 07:25:43;;;;;;;7.63;5.55;;;3.60;57.60;;;;;;5111764;27;20553;-64
2022/03/08 07:28:08;;;;;;;8.63;6.55;;;3.70;57.60;;;;;;5109455;27;20034;-64
2022/03/08 07:30:35;;;;;;;9.35;6.45;;;3.70;57.70;;;;;;5090756;28;20028;-62
2022/03/08 07:33:00;;;;;;;9.60;6.90;;;3.70;57.60;;;;;;5107441;28;20052;-62
2022/03/08 07:35:26;;;;;;;8.98;6.82;;;3.70;57.70;;;;;;5113392;27;20048;-62
2022/03/08 07:37:52;;;;;;;11.43;6.38;;;3.80;57.70;;;;;;5091713;28;20028;-62
2022/03/08 07:40:17;;;;;;;9.70;6.25;;;3.80;57.60;;;;;;5091345;27;20428;-64
2022/03/08 07:42:43;;;;;;;8.43;6.22;;;3.80;57.80;;;;;;5107527;28;20341;-64
2022/03/08 07:45:09;;;;;;;8.88;6.43;;;3.90;57.80;;;;;;5108774;28;20055;-62
2022/03/08 07:47:35;;;;;;;8.77;6.78;;;3.90;57.70;;;;;;5109325;28;20482;-65
2022/03/08 07:50:00;;;;;;;8.52;6.47;;;3.90;58.30;;;;;;5109339;28;20028;-65
2022/03/08 07:52:26;;;;;;;9.23;6.65;;;3.90;57.60;;;;;;5108922;28;20046;-64
2022/03/08 07:54:52;;;;;;;9.70;7.10;;;4.00;57.70;;;;;;5110037;28;20055;-64
2022/03/08 07:57:18;;;;;;;9.40;6.85;;;4.00;57.60;;;;;;5091026;28;20034;-64
2022/03/08 07:59:44;;;;;;;9.70;7.10;;;4.00;57.50;;;;;;5088831;28;20024;-64
2022/03/08 08:02:10;;;;;;;12.05;7.25;;;4.00;57.50;;;;;;5100066;28;20093;-62
2022/03/08 08:04:36;;;;;;;10.18;6.93;;;4.00;57.50;;;;;;5091668;28;20028;-64
2022/03/08 08:07:02;;;;;;;8.52;6.57;;;4.10;57.50;;;;;;5103981;28;20412;-64
2022/03/08 08:09:27;;;;;;;8.63;6.32;;;4.10;57.60;;;;;;5109074;28;20478;-65
2022/03/08 08:11:53;;;;;;;9.13;6.40;;;4.20;57.60;;;;;;5109335;28;20099;-65
2022/03/08 08:14:19;;;;;;;8.07;6.00;;;4.20;57.50;;;;;;5074685;28;20023;-63
2022/03/08 08:16:45;;;;;;;8.38;6.30;;;4.30;57.50;;;;;;5108855;28;20058;-64
2022/03/08 08:19:11;;;;;;;9.55;6.57;;;4.30;57.30;;;;;;5102426;28;20035;-64
2022/03/08 08:21:37;;;;;;;8.73;6.07;;;4.30;57.40;;;;;;5109306;28;20084;-64
2022/03/08 08:24:04;;;;;;;8.10;6.15;;;4.40;57.30;;;;;;5108986;28;20042;-64
2022/03/08 08:26:30;;;;;;;10.18;6.35;;;4.40;57.40;;;;;;5108708;28;20027;-63
2022/03/08 08:28:56;;;;;;;6.88;5.53;;;4.50;57.30;;;;;;5107977;28;20035;-64
2022/03/08 08:31:23;;;;;;;8.57;6.22;;;4.50;57.10;;;;;;5107434;28;20151;-64
2022/03/08 08:33:50;;;;;;;8.15;6.35;;;4.60;57.10;;;;;;5107153;28;21000;-63
2022/03/08 08:36:15;;;;;;;8.50;6.32;;;4.60;57.00;;;;;;5090176;28;20440;-64
2022/03/08 08:38:41;;;;;;;9.23;5.95;;;4.70;57.00;;;;;;5108875;28;20035;-63
2022/03/08 08:41:08;;;;;;;7.82;5.68;;;4.80;56.90;;;;;;5102197;28;20036;-61
2022/03/08 08:43:33;;;;;;;8.23;5.75;;;4.80;56.80;;;;;;5107865;28;20032;-64
2022/03/08 08:45:59;;;;;;;6.90;6.18;;;4.90;56.50;;;;;;5107470;28;20108;-64
2022/03/08 08:48:25;;;;;;;8.10;5.82;;;5.00;56.50;;;;;;5088804;28;20500;-64
2022/03/08 08:50:50;;;;;;;9.15;5.50;;;5.00;56.60;;;;;;5093489;28;20032;-64
2022/03/08 08:53:16;;;;;;;9.77;6.28;;;5.10;56.40;;;;;;5092879;28;20112;-63
2022/03/08 08:55:42;;;;;;;7.47;6.60;;;5.20;56.30;;;;;;5099141;28;20470;-63
2022/03/08 08:58:08;;;;;;;8.68;5.38;;;5.20;56.10;;;;;;5106966;28;20036;-64
2022/03/08 09:00:34;;;;;;;7.80;5.50;;;5.30;55.80;;;;;;5102968;28;20027;-64
2022/03/08 09:03:01;;;;;;;6.85;5.18;;;5.30;55.70;;;;;;5085290;28;20023;-61
2022/03/08 09:05:27;;;;;;;7.72;6.00;;;5.50;55.70;;;;;;5100307;28;20032;-62
2022/03/08 09:07:53;;;;;;;8.18;5.35;;;5.60;55.60;;;;;;5104076;28;20515;-62
2022/03/08 09:10:22;;;;;;;6.35;5.00;;;5.70;55.40;;;;;;5101743;28;20063;-61
2022/03/08 09:12:51;;;;;;;6.85;4.72;;;5.80;55.30;;;;;;5094282;28;20420;-64
2022/03/08 09:15:18;;;;;;;7.40;4.95;;;6.00;55.20;;;;;;5083280;28;20025;-63
2022/03/08 09:17:44;;;;;;;6.85;5.57;;;6.00;54.90;;;;;;5098567;28;20136;-64
2022/03/08 09:20:10;;;;;;;6.95;5.22;;;6.20;54.70;;;;;;5094151;28;20412;-63
2022/03/08 09:22:37;;;;;;;8.07;5.82;;;6.30;54.40;;;;;;5098599;28;20479;-64
2022/03/08 09:25:03;;;;;;;7.82;5.80;;;6.40;54.10;;;;;;5081202;28;20031;-64
2022/03/08 09:27:30;;;;;;;8.88;5.85;;;6.40;53.60;;;;;;5102746;28;20045;-64
2022/03/08 09:29:56;;;;;;;10.35;5.63;;;6.50;53.20;;;;;;5088989;28;20382;-62
2022/03/08 09:32:22;;;;;;;8.05;6.28;;;6.50;52.40;;;;;;5104185;28;20330;-62
2022/03/08 09:34:48;;;;;;;7.50;5.38;;;6.60;52.30;;;;;;5098744;28;20452;-62
2022/03/08 09:37:14;;;;;;;7.35;5.32;;;6.70;51.80;;;;;;5097158;28;20030;-64
2022/03/08 09:39:40;;;;;;;7.03;5.43;;;6.80;51.80;;;;;;5097818;28;20471;-64
2022/03/08 09:42:06;;;;;;;7.05;4.90;;;6.90;51.70;;;;;;5091815;28;20088;-64
2022/03/08 09:44:32;;;;;;;7.25;4.88;;;7.00;51.60;;;;;;5103534;28;20491;-64
2022/03/08 09:46:58;;;;;;;6.80;5.00;;;7.10;50.60;;;;;;5102055;28;20115;-64
2022/03/08 09:49:24;;;;;;;7.00;4.82;;;7.20;50.10;;;;;;5103901;28;20485;-64
2022/03/08 09:51:53;;;;;;;7.95;5.25;;;7.30;49.60;;;;;;5089853;28;20081;-64
2022/03/08 09:54:19;;;;;;;6.95;5.10;;;7.30;48.70;;;;;;5093926;28;20081;-64
2022/03/08 09:56:45;;;;;;;7.18;5.25;;;7.40;48.50;;;;;;5104420;28;20063;-64
2022/03/08 09:59:17;;;;;;;5.82;5.13;;;7.40;48.20;;;;;;5104473;28;20470;-64
2022/03/08 10:01:45;;;;;;;7.00;5.05;;;7.50;48.30;;;;;;5088120;28;20038;-64
2022/03/08 10:04:18;;;;;;;5.78;4.97;;;7.60;47.70;;;;;;5100898;28;20420;-64
2022/03/08 10:06:47;;;;;;;8.13;5.10;;;7.60;47.30;;;;;;5096040;28;20085;-64
2022/03/08 10:09:23;;;;;;;9.02;5.47;;;7.70;46.90;;;;;;5077127;28;20092;-64
2022/03/08 10:11:54;;;;;;;6.55;5.32;;;7.80;46.70;;;;;;5078847;28;20433;-64
2022/03/08 10:14:40;;;;;;;6.15;5.00;;;7.90;46.40;;;;;;5070733;28;20076;-64
2022/03/08 10:17:07;;;;;;;6.70;4.72;;;7.90;46.40;;;;;;5089111;28;20296;-64
2022/03/08 10:19:49;;;;;;;6.13;4.88;;;8.00;46.30;;;;;;5079118;28;20046;-64
2022/03/08 10:22:26;;;;;;;6.40;4.80;;;8.10;46.60;;;;;;5095153;28;20392;-62
2022/03/08 10:25:07;;;;;;;6.15;5.47;;;8.20;46.30;;;;;;5094311;28;20390;-62
2022/03/08 10:27:34;;;;;;;7.20;5.45;;;8.40;45.80;;;;;;5100032;28;20027;-62
2022/03/08 10:30:00;;;;;;;6.80;5.10;;;8.50;45.80;;;;;;5091041;28;20024;-64
2022/03/08 10:32:36;;;;;;;5.95;5.03;;;8.50;45.50;;;;;;5102850;28;20529;-62
2022/03/08 10:35:02;;;;;;;6.15;5.43;;;8.60;45.10;;;;;;5097655;28;20431;-65
2022/03/08 10:37:35;;;;;;;7.35;5.32;;;8.70;45.10;;;;;;5103554;28;20032;-64
2022/03/08 10:40:04;;;;;;;8.05;5.40;;;8.80;44.90;;;;;;5101325;28;20032;-64
2022/03/08 10:42:32;;;;;;;6.90;6.15;;;8.90;44.90;;;;;;5096485;28;20015;-64
2022/03/08 10:45:09;;;;;;;7.47;5.45;;;9.00;44.00;;;;;;5085976;28;20084;-64
2022/03/08 10:47:46;;;;;;;6.70;5.40;;;9.00;44.20;;;;;;5105916;28;20015;-64
2022/03/08 10:50:17;;;;;;;7.68;5.20;;;9.10;44.00;;;;;;5095061;28;20293;-64
2022/03/08 10:52:45;;;;;;;7.65;6.07;;;9.20;43.90;;;;;;5105303;28;20092;-63
2022/03/08 10:55:20;;;;;;;7.82;6.28;;;9.30;42.50;;;;;;5094250;28;20210;-64
2022/03/08 10:57:50;;;;;;;11.50;5.80;;;9.40;42.90;;;;;;5105925;28;20039;-64
2022/03/08 11:00:20;;;;;;;8.82;6.20;;;9.40;42.70;;;;;;5108612;28;20474;-62
2022/03/08 11:02:55;;;;;;;7.70;5.45;;;9.50;43.10;;;;;;5097401;28;20083;-63
2022/03/08 11:05:30;;;;;;;7.93;5.55;;;9.60;43.30;;;;;;5103645;28;20035;-63
2022/03/08 11:07:57;;;;;;;6.70;5.75;;;9.70;43.20;;;;;;5089594;28;20016;-63
2022/03/08 11:10:24;;;;;;;9.13;5.50;;;9.80;42.30;;;;;;5104935;28;20039;-63
2022/03/08 11:12:50;;;;;;;5.85;5.03;;;10.00;42.30;;;;;;5088214;28;20019;-63
2022/03/08 11:15:17;;;;;;;7.40;5.30;;;10.00;42.20;;;;;;5090552;28;20031;-63
2022/03/08 11:17:47;;;;;;;8.27;5.05;;;10.10;41.10;;;;;;5109561;28;20487;-63
2022/03/08 11:20:16;;;;;;;7.88;5.10;;;10.20;41.50;;;;;;5091303;28;20023;-63
2022/03/08 11:22:43;;;;;;;5.10;4.40;;;10.30;41.30;;;;;;5092373;28;20040;-63
2022/03/08 11:25:13;;;;;;;6.82;4.30;;;10.50;41.10;;;;;;5090185;28;20016;-63
2022/03/08 11:27:40;;;;;;;6.18;4.18;;;10.60;40.80;;;;;;5098430;28;20114;-63
2022/03/08 11:30:11;;;;;;;3.97;3.60;;;10.70;38.40;;;;;;5102540;28;20046;-64
2022/03/08 11:33:17;;;;;;;4.30;3.38;;;10.80;38.90;;;;;;5105612;28;20054;-64
2022/03/08 11:36:00;;;;;;;8.10;3.90;;;10.90;38.20;;;;;;5089857;28;20031;-63
2022/03/08 11:38:26;;;;;;;5.50;4.03;;;11.00;37.90;;;;;;5089822;28;20046;-63
2022/03/08 11:40:57;;;;;;;6.38;4.32;;;11.10;37.30;;;;;;5089323;28;20665;-63
2022/03/08 11:43:41;;;;;;;5.38;3.50;;;11.20;37.30;;;;;;5078445;28;20023;-63
2022/03/08 11:46:16;;;;;;;4.75;3.22;;;11.20;37.70;;;;;;5109465;28;20034;-63
2022/03/08 11:48:59;;;;;;;6.72;3.70;;;11.30;38.10;;;;;;5107666;28;20016;-63
2022/03/08 11:51:29;;;;;;;5.78;4.20;;;11.50;37.20;;;;;;5094294;28;20382;-63
2022/03/08 11:54:24;;;;;;;4.28;3.45;;;11.50;36.80;;;;;;5105567;28;20130;-63
2022/03/08 11:56:51;;;;;;;8.35;4.28;;;11.60;36.80;;;;;;5102455;28;20111;-64
2022/03/08 11:59:17;;;;;;;11.77;4.78;;;11.70;35.00;;;;;;5100190;28;20543;-65
2022/03/08 12:01:43;;;;;;;4.40;3.90;;;11.80;35.60;;;;;;5089354;28;20051;-65
2022/03/08 12:04:16;;;;;;;6.60;4.25;;;11.80;35.40;;;;;;5105807;28;20391;-65
2022/03/08 12:06:49;;;;;;;5.35;3.88;;;11.90;35.70;;;;;;5100493;28;20024;-63
2022/03/08 12:09:18;;;;;;;5.00;3.72;;;12.00;35.10;;;;;;5106458;28;20535;-63
2022/03/08 12:11:50;;;;;;;4.22;3.45;;;12.00;35.00;;;;;;5101352;28;20572;-64
2022/03/08 12:14:22;;;;;;;4.18;3.78;;;12.10;35.20;;;;;;5102318;28;20039;-64
2022/03/08 12:16:52;;;;;;;7.18;3.95;;;12.20;34.90;;;;;;5102914;28;20028;-63
2022/03/08 12:19:34;;;;;;;6.75;4.10;;;12.30;35.00;;;;;;5089894;28;20039;-67
2022/03/08 12:22:00;;;;;;;4.63;3.77;;;12.40;34.60;;;;;;5092778;28;20428;-64
2022/03/08 12:24:27;;;;;;;8.32;4.35;;;12.40;34.70;;;;;;5104136;28;20032;-63
2022/03/08 12:27:03;;;;;;;7.25;4.13;;;12.50;33.90;;;;;;5098519;27;20075;-64
2022/03/08 12:29:55;;;;;;;5.78;4.00;;;12.50;34.40;;;;;;5101121;27;20534;-62
2022/03/08 12:32:25;;;;;;;4.35;3.95;;;12.40;34.00;;;;;;5049201;28;20040;-62
2022/03/08 12:34:55;;;;;;;5.20;3.85;;;12.40;34.00;;;;;;5098865;28;20056;-64
2022/03/08 12:37:31;;;;;;;6.60;3.80;;;12.50;32.90;;;;;;5105026;28;20042;-65
2022/03/08 12:40:01;;;;;;;6.25;4.10;;;12.50;33.80;;;;;;5080853;28;20028;-64
2022/03/08 12:42:41;;;;;;;4.47;3.65;;;12.60;33.80;;;;;;5103250;28;20060;-64
2022/03/08 12:45:13;;;;;;;7.10;3.92;;;12.60;34.80;;;;;;5108191;28;20031;-64
2022/03/08 12:47:45;;;;;;;7.65;4.70;;;12.80;34.30;;;;;;5105674;28;20035;-62
2022/03/08 12:50:22;;;;;;;4.50;3.77;;;12.90;33.60;;;;;;5100411;28;20436;-62
2022/03/08 12:52:50;;;;;;;4.93;3.42;;;12.90;33.60;;;;;;5090391;28;20325;-62
2022/03/08 12:55:36;;;;;;;5.93;4.57;;;13.30;34.00;;;;;;5030513;27;1995118;-62